sensor_id;sensor_type;location;lat;lon;timestamp;temperature;humidity
21031;DHT22;61072;47.808;7.636;2022-09-09T00:02:25;17.80;99.90
21031;DHT22;61072;47.808;7.636;2022-09-09T00:05:01;17.80;99.90
21031;DHT22;61072;47.808;7.636;2022-09-09T00:21:07;18.10;99.90
21031;DHT22;61072;47.808;7.636;2022-09-09T00:23:44;18.10;99.90
21031;DHT22;61072;47.808;7.636;2022-09-09T00:26:35;18.20;99.90
21031;DHT22;61072;47.808;7.636;2022-09-09T00:31:35;18.20;99.90
21031;DHT22;61072;47.808;7.636;2022-09-09T00:36:41;18.30;99.90
21031;DHT22;61072;47.808;7.636;2022-09-09T00:39:23;18.30;99.90
21031;DHT22;61072;47.808;7.636;2022-09-09T00:42:16;18.40;99.90
21031;DHT22;61072;47.808;7.636;2022-09-09T00:44:56;18.40;99.90
21031;DHT22;61072;47.808;7.636;2022-09-09T00:47:38;18.50;99.90
21031;DHT22;61072;47.808;7.636;2022-09-09T00:50:32;18.50;99.90
21031;DHT22;61072;47.808;7.636;2022-09-09T00:53:35;18.50;99.90
21031;DHT22;61072;47.808;7.636;2022-09-09T00:56:14;18.60;99.90
21031;DHT22;61072;47.808;7.636;2022-09-09T00:59:02;18.60;99.90
21031;DHT22;61072;47.808;7.636;2022-09-09T01:01:32;18.60;99.90
21031;DHT22;61072;47.808;7.636;2022-09-09T01:03:58;18.60;99.90
21031;DHT22;61072;47.808;7.636;2022-09-09T01:06:36;18.70;99.90
21031;DHT22;61072;47.808;7.636;2022-09-09T01:14:22;18.70;99.90
21031;DHT22;61072;47.808;7.636;2022-09-09T01:16:54;18.80;99.90
21031;DHT22;61072;47.808;7.636;2022-09-09T01:27:35;18.80;99.90
21031;DHT22;61072;47.808;7.636;2022-09-09T01:30:08;18.80;99.90
21031;DHT22;61072;47.808;7.636;2022-09-09T01:32:47;18.80;99.90
21031;DHT22;61072;47.808;7.636;2022-09-09T01:37:57;18.80;99.90
21031;DHT22;61072;47.808;7.636;2022-09-09T01:40:25;18.80;99.90
21031;DHT22;61072;47.808;7.636;2022-09-09T01:42:53;18.80;99.90
21031;DHT22;61072;47.808;7.636;2022-09-09T01:45:21;18.70;99.90
21031;DHT22;61072;47.808;7.636;2022-09-09T01:47:48;18.70;99.90
21031;DHT22;61072;47.808;7.636;2022-09-09T01:50:16;18.70;99.90
21031;DHT22;61072;47.808;7.636;2022-09-09T01:52:44;18.70;99.90
21031;DHT22;61072;47.808;7.636;2022-09-09T01:55:11;18.60;99.90
21031;DHT22;61072;47.808;7.636;2022-09-09T02:00:30;18.50;99.90
21031;DHT22;61072;47.808;7.636;2022-09-09T02:03:08;18.50;99.90
21031;DHT22;61072;47.808;7.636;2022-09-09T02:05:43;18.50;99.90
21031;DHT22;61072;47.808;7.636;2022-09-09T02:08:20;18.50;99.90
21031;DHT22;61072;47.808;7.636;2022-09-09T02:10:58;18.40;99.90
21031;DHT22;61072;47.808;7.636;2022-09-09T02:13:29;18.40;99.90
21031;DHT22;61072;47.808;7.636;2022-09-09T02:16:23;18.30;99.90
21031;DHT22;61072;47.808;7.636;2022-09-09T02:19:08;18.30;99.90
21031;DHT22;61072;47.808;7.636;2022-09-09T02:21:37;18.30;99.90
21031;DHT22;61072;47.808;7.636;2022-09-09T02:24:08;18.30;99.90
21031;DHT22;61072;47.808;7.636;2022-09-09T02:26:40;18.20;99.90
21031;DHT22;61072;47.808;7.636;2022-09-09T02:29:17;18.20;99.90
21031;DHT22;61072;47.808;7.636;2022-09-09T02:31:46;18.20;99.90
21031;DHT22;61072;47.808;7.636;2022-09-09T02:34:14;18.20;99.90
21031;DHT22;61072;47.808;7.636;2022-09-09T02:36:43;18.20;99.90
21031;DHT22;61072;47.808;7.636;2022-09-09T02:39:12;18.20;99.90
21031;DHT22;61072;47.808;7.636;2022-09-09T02:41:41;18.20;99.90
21031;DHT22;61072;47.808;7.636;2022-09-09T02:44:16;18.20;99.90
21031;DHT22;61072;47.808;7.636;2022-09-09T02:50:08;18.20;99.90
21031;DHT22;61072;47.808;7.636;2022-09-09T02:55:40;18.30;99.90
21031;DHT22;61072;47.808;7.636;2022-09-09T02:58:11;18.20;99.90
21031;DHT22;61072;47.808;7.636;2022-09-09T03:00:39;18.20;99.90
21031;DHT22;61072;47.808;7.636;2022-09-09T03:03:07;18.20;99.90
21031;DHT22;61072;47.808;7.636;2022-09-09T03:05:36;18.20;99.90
21031;DHT22;61072;47.808;7.636;2022-09-09T03:08:03;18.20;99.90
21031;DHT22;61072;47.808;7.636;2022-09-09T03:10:32;18.20;99.90
21031;DHT22;61072;47.808;7.636;2022-09-09T03:12:59;18.20;99.90
21031;DHT22;61072;47.808;7.636;2022-09-09T03:15:26;18.20;99.90
21031;DHT22;61072;47.808;7.636;2022-09-09T03:17:57;18.20;99.90
21031;DHT22;61072;47.808;7.636;2022-09-09T03:20:25;18.20;99.90
21031;DHT22;61072;47.808;7.636;2022-09-09T03:22:53;18.30;99.90
21031;DHT22;61072;47.808;7.636;2022-09-09T03:25:20;18.20;99.90
21031;DHT22;61072;47.808;7.636;2022-09-09T03:27:46;18.30;99.90
21031;DHT22;61072;47.808;7.636;2022-09-09T03:30:13;18.30;99.90
21031;DHT22;61072;47.808;7.636;2022-09-09T03:32:40;18.20;99.90
21031;DHT22;61072;47.808;7.636;2022-09-09T03:35:07;18.20;99.90
21031;DHT22;61072;47.808;7.636;2022-09-09T03:37:34;18.30;99.90
21031;DHT22;61072;47.808;7.636;2022-09-09T03:40:01;18.20;99.90
21031;DHT22;61072;47.808;7.636;2022-09-09T03:42:28;18.20;99.90
21031;DHT22;61072;47.808;7.636;2022-09-09T03:44:55;18.10;99.90
21031;DHT22;61072;47.808;7.636;2022-09-09T03:47:24;18.10;99.90
21031;DHT22;61072;47.808;7.636;2022-09-09T03:49:50;18.10;99.90
21031;DHT22;61072;47.808;7.636;2022-09-09T03:52:17;18.00;99.90
21031;DHT22;61072;47.808;7.636;2022-09-09T03:54:49;18.00;99.90
21031;DHT22;61072;47.808;7.636;2022-09-09T03:57:15;17.90;99.90
21031;DHT22;61072;47.808;7.636;2022-09-09T03:59:43;17.80;99.90
21031;DHT22;61072;47.808;7.636;2022-09-09T04:02:10;17.80;99.90
21031;DHT22;61072;47.808;7.636;2022-09-09T04:04:37;17.80;99.90
21031;DHT22;61072;47.808;7.636;2022-09-09T04:07:04;17.70;99.90
21031;DHT22;61072;47.808;7.636;2022-09-09T04:09:33;17.70;99.90
21031;DHT22;61072;47.808;7.636;2022-09-09T04:12:00;17.70;99.90
21031;DHT22;61072;47.808;7.636;2022-09-09T04:14:26;17.60;99.90
21031;DHT22;61072;47.808;7.636;2022-09-09T04:16:55;17.60;99.90
21031;DHT22;61072;47.808;7.636;2022-09-09T04:19:23;17.60;99.90
21031;DHT22;61072;47.808;7.636;2022-09-09T04:21:50;17.60;99.90
21031;DHT22;61072;47.808;7.636;2022-09-09T04:24:18;17.50;99.90
21031;DHT22;61072;47.808;7.636;2022-09-09T04:26:45;17.50;99.90
21031;DHT22;61072;47.808;7.636;2022-09-09T04:29:12;17.40;99.90
21031;DHT22;61072;47.808;7.636;2022-09-09T04:31:38;17.40;99.90
21031;DHT22;61072;47.808;7.636;2022-09-09T04:34:09;17.40;99.90
21031;DHT22;61072;47.808;7.636;2022-09-09T04:36:36;17.40;99.90
21031;DHT22;61072;47.808;7.636;2022-09-09T04:39:02;17.40;99.90
21031;DHT22;61072;47.808;7.636;2022-09-09T04:41:29;17.40;99.90
21031;DHT22;61072;47.808;7.636;2022-09-09T04:43:57;17.50;99.90
21031;DHT22;61072;47.808;7.636;2022-09-09T04:46:26;17.60;99.90
21031;DHT22;61072;47.808;7.636;2022-09-09T04:48:53;17.60;99.90
21031;DHT22;61072;47.808;7.636;2022-09-09T04:51:20;17.60;99.90
21031;DHT22;61072;47.808;7.636;2022-09-09T04:53:46;17.70;99.90
21031;DHT22;61072;47.808;7.636;2022-09-09T04:56:15;17.70;99.90
21031;DHT22;61072;47.808;7.636;2022-09-09T04:58:42;17.70;99.90
21031;DHT22;61072;47.808;7.636;2022-09-09T05:01:18;17.80;99.90
21031;DHT22;61072;47.808;7.636;2022-09-09T05:03:45;17.80;99.90
21031;DHT22;61072;47.808;7.636;2022-09-09T05:06:14;17.80;99.90
21031;DHT22;61072;47.808;7.636;2022-09-09T05:08:43;17.80;99.90
21031;DHT22;61072;47.808;7.636;2022-09-09T05:11:18;17.90;99.90
21031;DHT22;61072;47.808;7.636;2022-09-09T05:13:45;17.90;99.90
21031;DHT22;61072;47.808;7.636;2022-09-09T05:16:13;17.80;99.90
21031;DHT22;61072;47.808;7.636;2022-09-09T05:18:41;17.80;99.90
21031;DHT22;61072;47.808;7.636;2022-09-09T05:21:10;17.90;99.90
21031;DHT22;61072;47.808;7.636;2022-09-09T05:23:37;17.90;99.90
21031;DHT22;61072;47.808;7.636;2022-09-09T05:26:05;18.00;99.90
21031;DHT22;61072;47.808;7.636;2022-09-09T05:28:33;18.00;99.90
21031;DHT22;61072;47.808;7.636;2022-09-09T05:31:05;18.00;99.90
21031;DHT22;61072;47.808;7.636;2022-09-09T05:33:35;18.10;99.90
21031;DHT22;61072;47.808;7.636;2022-09-09T05:36:03;18.00;99.90
21031;DHT22;61072;47.808;7.636;2022-09-09T05:38:31;18.10;99.90
21031;DHT22;61072;47.808;7.636;2022-09-09T05:40:59;18.10;99.90
21031;DHT22;61072;47.808;7.636;2022-09-09T05:43:26;18.20;99.90
21031;DHT22;61072;47.808;7.636;2022-09-09T05:46:07;18.10;99.90
21031;DHT22;61072;47.808;7.636;2022-09-09T05:48:42;18.20;99.90
21031;DHT22;61072;47.808;7.636;2022-09-09T05:51:14;18.20;99.90
21031;DHT22;61072;47.808;7.636;2022-09-09T05:53:45;18.10;99.90
21031;DHT22;61072;47.808;7.636;2022-09-09T05:56:19;18.10;99.90
21031;DHT22;61072;47.808;7.636;2022-09-09T05:58:46;18.10;99.90
21031;DHT22;61072;47.808;7.636;2022-09-09T06:01:21;18.10;99.90
21031;DHT22;61072;47.808;7.636;2022-09-09T06:03:49;18.20;99.90
21031;DHT22;61072;47.808;7.636;2022-09-09T06:06:24;18.10;99.90
21031;DHT22;61072;47.808;7.636;2022-09-09T06:08:54;18.20;99.90
21031;DHT22;61072;47.808;7.636;2022-09-09T06:11:23;18.20;99.90
21031;DHT22;61072;47.808;7.636;2022-09-09T06:13:51;18.20;99.90
21031;DHT22;61072;47.808;7.636;2022-09-09T06:16:22;18.30;99.90
21031;DHT22;61072;47.808;7.636;2022-09-09T06:18:54;18.30;99.90
21031;DHT22;61072;47.808;7.636;2022-09-09T06:21:23;18.30;99.90
21031;DHT22;61072;47.808;7.636;2022-09-09T06:23:51;18.30;99.90
21031;DHT22;61072;47.808;7.636;2022-09-09T06:26:26;18.30;99.90
21031;DHT22;61072;47.808;7.636;2022-09-09T06:28:54;18.30;99.90
21031;DHT22;61072;47.808;7.636;2022-09-09T06:31:22;18.30;99.90
21031;DHT22;61072;47.808;7.636;2022-09-09T06:33:56;18.30;99.90
21031;DHT22;61072;47.808;7.636;2022-09-09T06:36:28;18.30;99.90
21031;DHT22;61072;47.808;7.636;2022-09-09T06:38:55;18.40;99.90
21031;DHT22;61072;47.808;7.636;2022-09-09T06:41:25;18.40;99.90
21031;DHT22;61072;47.808;7.636;2022-09-09T06:43:53;18.50;99.90
21031;DHT22;61072;47.808;7.636;2022-09-09T06:46:21;18.50;99.90
21031;DHT22;61072;47.808;7.636;2022-09-09T06:48:48;18.50;99.90
21031;DHT22;61072;47.808;7.636;2022-09-09T06:51:19;18.40;99.90
21031;DHT22;61072;47.808;7.636;2022-09-09T06:53:51;18.40;99.90
21031;DHT22;61072;47.808;7.636;2022-09-09T06:56:21;18.40;99.90
21031;DHT22;61072;47.808;7.636;2022-09-09T06:58:51;18.40;99.90
21031;DHT22;61072;47.808;7.636;2022-09-09T07:01:28;18.40;99.90
21031;DHT22;61072;47.808;7.636;2022-09-09T07:03:57;18.40;99.90
21031;DHT22;61072;47.808;7.636;2022-09-09T07:06:32;18.50;99.90
21031;DHT22;61072;47.808;7.636;2022-09-09T07:09:03;18.50;99.90
21031;DHT22;61072;47.808;7.636;2022-09-09T07:11:33;18.60;99.90
21031;DHT22;61072;47.808;7.636;2022-09-09T07:14:00;18.70;99.90
21031;DHT22;61072;47.808;7.636;2022-09-09T07:16:27;18.80;99.90
21031;DHT22;61072;47.808;7.636;2022-09-09T07:18:55;18.90;99.90
21031;DHT22;61072;47.808;7.636;2022-09-09T07:21:25;18.90;99.90
21031;DHT22;61072;47.808;7.636;2022-09-09T07:23:53;18.90;99.90
21031;DHT22;61072;47.808;7.636;2022-09-09T07:26:22;18.90;99.90
21031;DHT22;61072;47.808;7.636;2022-09-09T07:28:49;18.90;99.90
21031;DHT22;61072;47.808;7.636;2022-09-09T07:31:22;19.00;99.90
21031;DHT22;61072;47.808;7.636;2022-09-09T07:33:49;19.00;99.90
21031;DHT22;61072;47.808;7.636;2022-09-09T07:36:18;19.10;99.90
21031;DHT22;61072;47.808;7.636;2022-09-09T07:38:50;19.00;99.90
21031;DHT22;61072;47.808;7.636;2022-09-09T07:43:49;19.20;99.90
21031;DHT22;61072;47.808;7.636;2022-09-09T07:46:17;19.10;99.90
21031;DHT22;61072;47.808;7.636;2022-09-09T07:48:47;19.10;99.90
21031;DHT22;61072;47.808;7.636;2022-09-09T07:51:21;19.10;99.90
21031;DHT22;61072;47.808;7.636;2022-09-09T07:53:52;19.10;99.90
21031;DHT22;61072;47.808;7.636;2022-09-09T07:56:20;19.10;99.90
21031;DHT22;61072;47.808;7.636;2022-09-09T07:58:50;19.10;99.90
21031;DHT22;61072;47.808;7.636;2022-09-09T08:01:27;19.10;99.90
21031;DHT22;61072;47.808;7.636;2022-09-09T08:03:59;19.20;99.90
21031;DHT22;61072;47.808;7.636;2022-09-09T08:06:34;19.20;99.90
21031;DHT22;61072;47.808;7.636;2022-09-09T08:09:01;19.20;99.90
21031;DHT22;61072;47.808;7.636;2022-09-09T08:11:29;19.20;99.90
21031;DHT22;61072;47.808;7.636;2022-09-09T08:14:03;19.20;99.90
21031;DHT22;61072;47.808;7.636;2022-09-09T08:16:32;19.20;99.90
21031;DHT22;61072;47.808;7.636;2022-09-09T08:19:00;19.10;99.90
21031;DHT22;61072;47.808;7.636;2022-09-09T08:21:29;19.10;99.90
21031;DHT22;61072;47.808;7.636;2022-09-09T08:23:57;19.10;99.90
21031;DHT22;61072;47.808;7.636;2022-09-09T08:26:31;19.10;99.90
21031;DHT22;61072;47.808;7.636;2022-09-09T08:28:59;19.10;99.90
21031;DHT22;61072;47.808;7.636;2022-09-09T08:31:32;19.20;99.90
21031;DHT22;61072;47.808;7.636;2022-09-09T08:34:00;19.30;99.90
21031;DHT22;61072;47.808;7.636;2022-09-09T08:36:29;19.40;99.90
21031;DHT22;61072;47.808;7.636;2022-09-09T08:38:57;19.50;99.90
21031;DHT22;61072;47.808;7.636;2022-09-09T08:47:12;20.00;99.90
21031;DHT22;61072;47.808;7.636;2022-09-09T08:52:20;20.20;99.90
21031;DHT22;61072;47.808;7.636;2022-09-09T08:54:49;20.30;99.90
21031;DHT22;61072;47.808;7.636;2022-09-09T08:57:24;20.40;99.90
21031;DHT22;61072;47.808;7.636;2022-09-09T08:59:55;20.50;99.90
21031;DHT22;61072;47.808;7.636;2022-09-09T09:10:35;20.50;99.90
21031;DHT22;61072;47.808;7.636;2022-09-09T09:13:19;20.40;99.90
21031;DHT22;61072;47.808;7.636;2022-09-09T09:15:54;20.30;99.90
21031;DHT22;61072;47.808;7.636;2022-09-09T09:18:23;20.20;99.90
21031;DHT22;61072;47.808;7.636;2022-09-09T09:21:07;20.20;99.90
21031;DHT22;61072;47.808;7.636;2022-09-09T09:23:48;20.10;99.90
21031;DHT22;61072;47.808;7.636;2022-09-09T09:26:18;20.10;99.90
21031;DHT22;61072;47.808;7.636;2022-09-09T09:28:45;20.10;99.90
21031;DHT22;61072;47.808;7.636;2022-09-09T09:31:12;20.10;99.90
21031;DHT22;61072;47.808;7.636;2022-09-09T09:36:10;20.20;99.90
21031;DHT22;61072;47.808;7.636;2022-09-09T09:38:40;20.40;99.90
21031;DHT22;61072;47.808;7.636;2022-09-09T09:41:41;20.50;99.90
21031;DHT22;61072;47.808;7.636;2022-09-09T09:44:28;20.60;99.90
21031;DHT22;61072;47.808;7.636;2022-09-09T09:49:39;20.70;99.90
21031;DHT22;61072;47.808;7.636;2022-09-09T09:52:21;20.70;99.90
21031;DHT22;61072;47.808;7.636;2022-09-09T09:54:48;20.80;99.90
21031;DHT22;61072;47.808;7.636;2022-09-09T09:57:16;20.90;99.90
21031;DHT22;61072;47.808;7.636;2022-09-09T09:59:44;20.90;99.90
21031;DHT22;61072;47.808;7.636;2022-09-09T10:04:46;20.80;99.90
21031;DHT22;61072;47.808;7.636;2022-09-09T10:07:21;20.80;99.90
21031;DHT22;61072;47.808;7.636;2022-09-09T10:09:54;20.80;99.90
21031;DHT22;61072;47.808;7.636;2022-09-09T10:18:52;21.00;99.90
21031;DHT22;61072;47.808;7.636;2022-09-09T10:21:06;21.30;99.90
21031;DHT22;61072;47.808;7.636;2022-09-09T10:23:51;21.50;99.90
21031;DHT22;61072;47.808;7.636;2022-09-09T10:31:51;21.80;99.90
21031;DHT22;61072;47.808;7.636;2022-09-09T10:37:07;21.70;99.90
21031;DHT22;61072;47.808;7.636;2022-09-09T10:39:41;21.80;99.90
21031;DHT22;61072;47.808;7.636;2022-09-09T10:42:20;21.90;99.90
21031;DHT22;61072;47.808;7.636;2022-09-09T10:51:00;22.10;99.90
21031;DHT22;61072;47.808;7.636;2022-09-09T10:53:34;22.10;99.90
21031;DHT22;61072;47.808;7.636;2022-09-09T10:56:09;22.10;99.90
21031;DHT22;61072;47.808;7.636;2022-09-09T11:04:45;21.80;99.90
21031;DHT22;61072;47.808;7.636;2022-09-09T11:07:40;21.70;99.90
21031;DHT22;61072;47.808;7.636;2022-09-09T11:12:46;21.60;99.90
21031;DHT22;61072;47.808;7.636;2022-09-09T11:15:23;21.60;99.90
21031;DHT22;61072;47.808;7.636;2022-09-09T11:17:55;21.60;99.90
21031;DHT22;61072;47.808;7.636;2022-09-09T11:20:23;21.70;99.90
21031;DHT22;61072;47.808;7.636;2022-09-09T11:23:01;21.70;99.90
21031;DHT22;61072;47.808;7.636;2022-09-09T11:25:36;21.80;99.90
21031;DHT22;61072;47.808;7.636;2022-09-09T11:34:08;21.60;99.90
21031;DHT22;61072;47.808;7.636;2022-09-09T11:37:04;21.70;99.90
21031;DHT22;61072;47.808;7.636;2022-09-09T11:39:38;21.80;99.90
21031;DHT22;61072;47.808;7.636;2022-09-09T11:42:19;21.80;99.90
21031;DHT22;61072;47.808;7.636;2022-09-09T11:44:46;21.90;99.90
21031;DHT22;61072;47.808;7.636;2022-09-09T11:47:30;21.80;99.90
21031;DHT22;61072;47.808;7.636;2022-09-09T11:52:44;21.80;99.90
21031;DHT22;61072;47.808;7.636;2022-09-09T11:55:41;21.80;99.90
21031;DHT22;61072;47.808;7.636;2022-09-09T12:00:42;22.00;99.90
21031;DHT22;61072;47.808;7.636;2022-09-09T12:06:19;21.90;99.90
21031;DHT22;61072;47.808;7.636;2022-09-09T12:08:57;21.90;99.90
21031;DHT22;61072;47.808;7.636;2022-09-09T12:11:26;21.90;99.90
21031;DHT22;61072;47.808;7.636;2022-09-09T12:13:56;22.00;99.90
21031;DHT22;61072;47.808;7.636;2022-09-09T12:16:36;22.00;99.90
21031;DHT22;61072;47.808;7.636;2022-09-09T12:19:13;22.10;99.90
21031;DHT22;61072;47.808;7.636;2022-09-09T12:24:39;22.10;99.90
21031;DHT22;61072;47.808;7.636;2022-09-09T12:27:23;22.20;99.90
21031;DHT22;61072;47.808;7.636;2022-09-09T12:32:36;22.30;99.90
21031;DHT22;61072;47.808;7.636;2022-09-09T12:35:12;22.40;99.90
21031;DHT22;61072;47.808;7.636;2022-09-09T12:37:49;22.50;99.90
21031;DHT22;61072;47.808;7.636;2022-09-09T12:40:33;22.60;99.90
21031;DHT22;61072;47.808;7.636;2022-09-09T12:43:20;22.60;99.90
21031;DHT22;61072;47.808;7.636;2022-09-09T12:45:49;22.70;99.90
21031;DHT22;61072;47.808;7.636;2022-09-09T12:48:44;22.70;99.90
21031;DHT22;61072;47.808;7.636;2022-09-09T12:51:26;22.60;99.90
21031;DHT22;61072;47.808;7.636;2022-09-09T12:53:54;22.40;99.90
21031;DHT22;61072;47.808;7.636;2022-09-09T12:56:27;22.30;99.90
21031;DHT22;61072;47.808;7.636;2022-09-09T12:58:56;22.20;99.90
21031;DHT22;61072;47.808;7.636;2022-09-09T13:03:53;21.60;99.90
21031;DHT22;61072;47.808;7.636;2022-09-09T13:06:22;21.40;99.90
21031;DHT22;61072;47.808;7.636;2022-09-09T13:08:56;21.20;99.90
21031;DHT22;61072;47.808;7.636;2022-09-09T13:11:27;21.20;99.90
21031;DHT22;61072;47.808;7.636;2022-09-09T13:13:57;21.30;99.90
21031;DHT22;61072;47.808;7.636;2022-09-09T13:16:33;21.30;99.90
21031;DHT22;61072;47.808;7.636;2022-09-09T13:19:09;21.40;99.90
21031;DHT22;61072;47.808;7.636;2022-09-09T13:21:40;21.50;99.90
21031;DHT22;61072;47.808;7.636;2022-09-09T13:26:56;21.50;99.90
21031;DHT22;61072;47.808;7.636;2022-09-09T13:29:23;21.50;99.90
21031;DHT22;61072;47.808;7.636;2022-09-09T13:31:50;21.40;99.90
21031;DHT22;61072;47.808;7.636;2022-09-09T13:34:34;21.30;99.90
21031;DHT22;61072;47.808;7.636;2022-09-09T13:37:09;21.20;99.90
21031;DHT22;61072;47.808;7.636;2022-09-09T13:39:51;21.10;99.90
21031;DHT22;61072;47.808;7.636;2022-09-09T13:42:31;21.00;99.90
21031;DHT22;61072;47.808;7.636;2022-09-09T13:44:59;20.90;99.90
21031;DHT22;61072;47.808;7.636;2022-09-09T13:47:32;21.00;99.90
21031;DHT22;61072;47.808;7.636;2022-09-09T13:50:18;21.10;99.90
21031;DHT22;61072;47.808;7.636;2022-09-09T13:52:45;21.10;99.90
21031;DHT22;61072;47.808;7.636;2022-09-09T13:55:12;21.10;99.90
21031;DHT22;61072;47.808;7.636;2022-09-09T13:57:39;21.10;99.90
21031;DHT22;61072;47.808;7.636;2022-09-09T14:00:16;21.10;99.90
21031;DHT22;61072;47.808;7.636;2022-09-09T14:02:43;21.20;99.90
21031;DHT22;61072;47.808;7.636;2022-09-09T14:05:10;21.10;99.90
21031;DHT22;61072;47.808;7.636;2022-09-09T14:07:40;21.20;99.90
21031;DHT22;61072;47.808;7.636;2022-09-09T14:10:08;21.20;99.90
21031;DHT22;61072;47.808;7.636;2022-09-09T14:12:35;21.20;99.90
21031;DHT22;61072;47.808;7.636;2022-09-09T14:15:04;21.20;99.90
21031;DHT22;61072;47.808;7.636;2022-09-09T14:17:31;21.30;99.90
21031;DHT22;61072;47.808;7.636;2022-09-09T14:19:58;21.30;99.90
21031;DHT22;61072;47.808;7.636;2022-09-09T14:22:25;21.40;99.90
21031;DHT22;61072;47.808;7.636;2022-09-09T14:24:52;21.40;99.90
21031;DHT22;61072;47.808;7.636;2022-09-09T14:27:19;21.50;99.90
21031;DHT22;61072;47.808;7.636;2022-09-09T14:29:46;21.50;99.90
21031;DHT22;61072;47.808;7.636;2022-09-09T14:32:12;21.60;99.90
21031;DHT22;61072;47.808;7.636;2022-09-09T14:34:39;21.60;99.90
21031;DHT22;61072;47.808;7.636;2022-09-09T14:37:07;21.60;99.90
21031;DHT22;61072;47.808;7.636;2022-09-09T14:39:33;21.70;99.90
21031;DHT22;61072;47.808;7.636;2022-09-09T14:42:00;21.70;99.90
21031;DHT22;61072;47.808;7.636;2022-09-09T14:44:27;21.60;99.90
21031;DHT22;61072;47.808;7.636;2022-09-09T14:46:54;21.70;99.90
21031;DHT22;61072;47.808;7.636;2022-09-09T14:49:21;21.60;99.90
21031;DHT22;61072;47.808;7.636;2022-09-09T14:51:47;21.70;99.90
21031;DHT22;61072;47.808;7.636;2022-09-09T14:54:14;21.70;99.90
21031;DHT22;61072;47.808;7.636;2022-09-09T14:56:41;21.80;99.90
21031;DHT22;61072;47.808;7.636;2022-09-09T14:59:07;21.80;99.90
21031;DHT22;61072;47.808;7.636;2022-09-09T15:01:34;21.80;99.90
21031;DHT22;61072;47.808;7.636;2022-09-09T15:04:03;21.80;99.90
21031;DHT22;61072;47.808;7.636;2022-09-09T15:06:33;21.80;99.90
21031;DHT22;61072;47.808;7.636;2022-09-09T15:08:59;21.90;99.90
21031;DHT22;61072;47.808;7.636;2022-09-09T15:11:30;21.90;99.90
21031;DHT22;61072;47.808;7.636;2022-09-09T15:13:57;21.90;99.90
21031;DHT22;61072;47.808;7.636;2022-09-09T15:16:27;21.80;99.90
21031;DHT22;61072;47.808;7.636;2022-09-09T15:18:56;21.80;99.90
21031;DHT22;61072;47.808;7.636;2022-09-09T15:21:25;21.70;99.90
21031;DHT22;61072;47.808;7.636;2022-09-09T15:23:52;21.60;99.90
21031;DHT22;61072;47.808;7.636;2022-09-09T15:26:19;21.60;99.90
21031;DHT22;61072;47.808;7.636;2022-09-09T15:28:47;21.50;99.90
21031;DHT22;61072;47.808;7.636;2022-09-09T15:31:20;21.50;99.90
21031;DHT22;61072;47.808;7.636;2022-09-09T15:33:49;21.60;99.90
21031;DHT22;61072;47.808;7.636;2022-09-09T15:38:44;21.50;99.90
21031;DHT22;61072;47.808;7.636;2022-09-09T15:41:12;21.50;99.90
21031;DHT22;61072;47.808;7.636;2022-09-09T15:43:44;21.40;99.90
21031;DHT22;61072;47.808;7.636;2022-09-09T15:49:18;21.40;99.90
21031;DHT22;61072;47.808;7.636;2022-09-09T15:51:55;21.30;99.90
21031;DHT22;61072;47.808;7.636;2022-09-09T15:54:25;21.30;99.90
21031;DHT22;61072;47.808;7.636;2022-09-09T15:56:55;21.20;99.90
21031;DHT22;61072;47.808;7.636;2022-09-09T15:59:27;21.00;99.90
21031;DHT22;61072;47.808;7.636;2022-09-09T16:01:54;20.90;99.90
21031;DHT22;61072;47.808;7.636;2022-09-09T16:04:23;20.80;99.90
21031;DHT22;61072;47.808;7.636;2022-09-09T16:06:58;20.70;99.90
21031;DHT22;61072;47.808;7.636;2022-09-09T16:09:26;20.60;99.90
21031;DHT22;61072;47.808;7.636;2022-09-09T16:11:56;20.70;99.90
21031;DHT22;61072;47.808;7.636;2022-09-09T16:14:23;20.70;99.90
21031;DHT22;61072;47.808;7.636;2022-09-09T16:16:51;20.70;99.90
21031;DHT22;61072;47.808;7.636;2022-09-09T16:19:19;20.60;99.90
21031;DHT22;61072;47.808;7.636;2022-09-09T16:21:47;20.60;99.90
21031;DHT22;61072;47.808;7.636;2022-09-09T16:24:18;20.60;99.90
21031;DHT22;61072;47.808;7.636;2022-09-09T16:26:48;20.60;99.90
21031;DHT22;61072;47.808;7.636;2022-09-09T16:29:17;20.60;99.90
21031;DHT22;61072;47.808;7.636;2022-09-09T16:31:44;20.60;99.90
21031;DHT22;61072;47.808;7.636;2022-09-09T16:34:12;20.70;99.90
21031;DHT22;61072;47.808;7.636;2022-09-09T16:36:40;20.70;99.90
21031;DHT22;61072;47.808;7.636;2022-09-09T16:39:13;20.70;99.90
21031;DHT22;61072;47.808;7.636;2022-09-09T16:41:41;20.80;99.90
21031;DHT22;61072;47.808;7.636;2022-09-09T16:44:10;20.80;99.90
21031;DHT22;61072;47.808;7.636;2022-09-09T16:46:41;20.80;99.90
21031;DHT22;61072;47.808;7.636;2022-09-09T16:49:11;20.80;99.90
21031;DHT22;61072;47.808;7.636;2022-09-09T16:51:46;20.70;99.90
21031;DHT22;61072;47.808;7.636;2022-09-09T16:54:14;20.70;99.90
21031;DHT22;61072;47.808;7.636;2022-09-09T16:56:44;20.70;99.90
21031;DHT22;61072;47.808;7.636;2022-09-09T16:59:16;20.50;99.90
21031;DHT22;61072;47.808;7.636;2022-09-09T17:01:45;20.50;99.90
21031;DHT22;61072;47.808;7.636;2022-09-09T17:04:14;20.40;99.90
21031;DHT22;61072;47.808;7.636;2022-09-09T17:06:50;20.30;99.90
21031;DHT22;61072;47.808;7.636;2022-09-09T17:09:18;20.30;99.90
21031;DHT22;61072;47.808;7.636;2022-09-09T17:11:45;20.20;99.90
21031;DHT22;61072;47.808;7.636;2022-09-09T17:14:16;20.10;99.90
21031;DHT22;61072;47.808;7.636;2022-09-09T17:16:43;20.00;99.90
21031;DHT22;61072;47.808;7.636;2022-09-09T17:19:11;19.90;99.90
21031;DHT22;61072;47.808;7.636;2022-09-09T17:21:38;19.80;99.90
21031;DHT22;61072;47.808;7.636;2022-09-09T17:24:29;19.70;99.90
21031;DHT22;61072;47.808;7.636;2022-09-09T17:26:56;19.60;99.90
21031;DHT22;61072;47.808;7.636;2022-09-09T17:29:24;19.50;99.90
21031;DHT22;61072;47.808;7.636;2022-09-09T17:31:51;19.40;99.90
21031;DHT22;61072;47.808;7.636;2022-09-09T17:34:18;19.30;99.90
21031;DHT22;61072;47.808;7.636;2022-09-09T17:36:44;19.30;99.90
21031;DHT22;61072;47.808;7.636;2022-09-09T17:39:11;19.20;99.90
21031;DHT22;61072;47.808;7.636;2022-09-09T17:41:39;19.20;99.90
21031;DHT22;61072;47.808;7.636;2022-09-09T17:44:07;19.20;99.90
21031;DHT22;61072;47.808;7.636;2022-09-09T17:46:40;19.10;99.90
21031;DHT22;61072;47.808;7.636;2022-09-09T17:49:10;19.10;99.90
21031;DHT22;61072;47.808;7.636;2022-09-09T17:51:38;19.10;99.90
21031;DHT22;61072;47.808;7.636;2022-09-09T17:54:10;19.10;99.90
21031;DHT22;61072;47.808;7.636;2022-09-09T17:56:37;19.00;99.90
21031;DHT22;61072;47.808;7.636;2022-09-09T17:59:06;19.00;99.90
21031;DHT22;61072;47.808;7.636;2022-09-09T18:01:38;19.00;99.90
21031;DHT22;61072;47.808;7.636;2022-09-09T18:04:06;19.00;99.90
21031;DHT22;61072;47.808;7.636;2022-09-09T18:06:38;19.00;99.90